createdAt,value
2018-07-30T00:00:19.612Z,25.22
2018-07-30T00:01:19.614Z,25.23
2018-07-30T00:02:19.626Z,25.22
2018-07-30T00:03:19.636Z,25.28
2018-07-30T00:04:19.638Z,25.21
2018-07-30T00:05:19.651Z,25.21
2018-07-30T00:06:19.650Z,25.18
2018-07-30T00:07:19.663Z,25.21
2018-07-30T00:08:19.668Z,25.14
2018-07-30T00:09:19.671Z,25.01
2018-07-30T00:10:19.680Z,25.08
2018-07-30T00:11:19.691Z,25.07
2018-07-30T00:12:19.695Z,25.16
2018-07-30T00:13:19.704Z,25.17
2018-07-30T00:14:19.751Z,25.17
2018-07-30T00:15:19.718Z,25.21
2018-07-30T00:16:19.725Z,25.29
2018-07-30T00:17:19.733Z,25.21
2018-07-30T00:18:19.741Z,25.33
2018-07-30T00:19:19.748Z,25.21
2018-07-30T00:20:19.757Z,25.26
2018-07-30T00:21:19.809Z,25.23
2018-07-30T00:22:19.766Z,25.25
2018-07-30T00:23:19.775Z,25.21
2018-07-30T00:24:19.783Z,25.31
2018-07-30T00:25:19.794Z,25.23
2018-07-30T00:26:19.796Z,25.31
2018-07-30T00:27:19.802Z,25.23
2018-07-30T00:28:19.812Z,25.18
2018-07-30T00:29:19.823Z,25.21
2018-07-30T00:30:19.827Z,25.17
2018-07-30T00:31:19.864Z,25.21
2018-07-30T00:32:19.841Z,25.08
2018-07-30T00:33:19.847Z,25.07
2018-07-30T00:34:19.857Z,25.08
2018-07-30T00:35:19.860Z,25.10
2018-07-30T00:36:19.872Z,25.18
2018-07-30T00:37:19.882Z,25.16
2018-07-30T00:38:19.885Z,25.26
2018-07-30T00:39:19.890Z,25.22
2018-07-30T00:40:19.899Z,25.22
2018-07-30T00:41:19.909Z,25.11
2018-07-30T00:42:19.915Z,25.18
2018-07-30T00:43:19.927Z,25.16
2018-07-30T00:44:19.932Z,25.17
2018-07-30T00:45:19.940Z,25.17
2018-07-30T00:46:19.946Z,25.17
2018-07-30T00:47:19.953Z,25.21
2018-07-30T00:48:20.005Z,25.14
2018-07-30T00:49:19.969Z,25.18
2018-07-30T00:50:19.973Z,25.21
2018-07-30T00:51:19.983Z,25.26
2018-07-30T00:52:19.997Z,25.26
2018-07-30T00:53:19.996Z,25.17
2018-07-30T00:54:20.001Z,25.03
2018-07-30T00:55:20.013Z,25.03
2018-07-30T00:56:20.016Z,25.03
2018-07-30T00:57:20.027Z,24.98
2018-07-30T00:58:20.030Z,25.08
2018-07-30T00:59:20.035Z,25.07
2018-07-30T01:00:20.046Z,25.06
2018-07-30T01:01:20.053Z,25.03
2018-07-30T01:02:20.057Z,25.03
2018-07-30T01:03:20.070Z,25.04
2018-07-30T01:04:20.076Z,24.99
2018-07-30T01:05:20.081Z,25.01
2018-07-30T01:06:20.087Z,25.03
2018-07-30T01:07:20.096Z,25.06
2018-07-30T01:08:20.107Z,25.08
2018-07-30T01:09:20.112Z,24.98
2018-07-30T01:10:20.120Z,24.93
2018-07-30T01:11:20.125Z,24.98
2018-07-30T01:12:20.130Z,24.95
2018-07-30T01:13:20.140Z,24.99
2018-07-30T01:14:20.152Z,24.93
2018-07-30T01:15:20.156Z,25.04
2018-07-30T01:16:20.160Z,24.91
2018-07-30T01:17:20.167Z,24.89
2018-07-30T01:18:20.171Z,24.89
2018-07-30T01:19:20.183Z,24.91
2018-07-30T01:20:20.194Z,24.88
2018-07-30T01:21:20.200Z,24.91
2018-07-30T01:22:20.206Z,24.86
2018-07-30T01:23:20.210Z,24.88
2018-07-30T01:24:20.218Z,24.91
2018-07-30T01:25:20.227Z,24.91
2018-07-30T01:26:20.236Z,24.85
2018-07-30T01:27:20.235Z,24.92
2018-07-30T01:28:20.245Z,24.95
2018-07-30T01:29:20.257Z,24.93
2018-07-30T01:30:20.263Z,25.01
2018-07-30T01:31:20.268Z,24.98
2018-07-30T01:32:20.273Z,24.98
2018-07-30T01:33:20.283Z,24.98
2018-07-30T01:34:20.296Z,25.04
2018-07-30T01:35:20.298Z,24.89
2018-07-30T01:36:20.300Z,24.84
2018-07-30T01:37:20.309Z,24.81
2018-07-30T01:38:20.321Z,24.74
2018-07-30T01:39:20.324Z,24.74
2018-07-30T01:40:20.333Z,24.73
2018-07-30T01:41:20.339Z,24.73
2018-07-30T01:42:20.353Z,24.88
2018-07-30T01:43:20.351Z,24.80
2018-07-30T01:44:20.357Z,24.60
2018-07-30T01:45:20.364Z,24.60
2018-07-30T01:46:20.376Z,24.65
2018-07-30T01:47:20.384Z,24.65
2018-07-30T01:48:20.385Z,24.53
2018-07-30T01:49:20.396Z,24.36
2018-07-30T01:50:20.404Z,24.28
2018-07-30T01:51:20.409Z,24.21
2018-07-30T01:52:20.413Z,24.13
2018-07-30T01:53:20.422Z,24.03
2018-07-30T01:54:20.432Z,24.13
2018-07-30T01:55:20.472Z,24.10
2018-07-30T01:56:20.441Z,24.11
2018-07-30T01:57:20.444Z,24.17
2018-07-30T01:58:20.459Z,24.23
2018-07-30T01:59:20.469Z,24.39
2018-07-30T02:00:20.474Z,24.24
2018-07-30T02:01:20.477Z,24.43
2018-07-30T02:02:20.488Z,24.40
2018-07-30T02:03:20.495Z,24.42
2018-07-30T02:04:20.500Z,24.42
2018-07-30T02:05:20.506Z,24.43
2018-07-30T02:06:20.517Z,24.39
2018-07-30T02:07:20.530Z,24.28
2018-07-30T02:08:20.531Z,24.28
2018-07-30T02:09:20.534Z,24.24
2018-07-30T02:10:20.539Z,24.29
2018-07-30T02:11:20.556Z,24.45
2018-07-30T02:12:20.555Z,24.33
2018-07-30T02:13:20.562Z,24.42
2018-07-30T02:14:20.570Z,24.42
2018-07-30T02:15:20.575Z,24.35
2018-07-30T02:16:20.579Z,24.33
2018-07-30T02:17:20.591Z,24.38
2018-07-30T02:18:20.592Z,24.33
2018-07-30T02:19:20.605Z,24.47
2018-07-30T02:20:20.608Z,24.45
2018-07-30T02:21:20.629Z,24.39
2018-07-30T02:22:20.630Z,24.40
2018-07-30T02:23:20.636Z,24.38
2018-07-30T02:24:20.640Z,24.35
2018-07-30T02:25:20.646Z,24.38
2018-07-30T02:26:20.655Z,24.39
2018-07-30T02:27:20.660Z,24.33
2018-07-30T02:28:20.668Z,24.35
2018-07-30T02:29:20.676Z,24.39
2018-07-30T02:30:20.677Z,24.38
2018-07-30T02:31:20.685Z,24.42
2018-07-30T02:32:20.708Z,24.32
2018-07-30T02:33:20.706Z,24.33
2018-07-30T02:34:20.708Z,24.39
2018-07-30T02:35:20.714Z,24.29
2018-07-30T02:36:20.726Z,24.26
2018-07-30T02:37:20.729Z,24.20
2018-07-30T02:38:20.735Z,24.20
2018-07-30T02:39:20.746Z,24.17
2018-07-30T02:40:20.748Z,24.14
2018-07-30T02:41:20.759Z,24.08
2018-07-30T02:42:20.761Z,24.06
2018-07-30T02:43:20.771Z,23.93
2018-07-30T02:44:20.777Z,23.86
2018-07-30T02:45:20.784Z,23.87
2018-07-30T02:46:20.790Z,23.81
2018-07-30T02:47:20.799Z,23.74
2018-07-30T02:48:20.804Z,23.47
2018-07-30T02:49:20.810Z,23.41
2018-07-30T02:50:20.817Z,23.47
2018-07-30T02:51:20.821Z,23.37
2018-07-30T02:52:20.829Z,23.40
2018-07-30T02:53:20.841Z,23.41
2018-07-30T02:54:20.852Z,23.36
2018-07-30T02:55:20.863Z,23.41
2018-07-30T02:56:20.859Z,23.39
2018-07-30T02:57:20.860Z,23.40
2018-07-30T02:58:20.872Z,23.43
2018-07-30T02:59:20.880Z,23.27
2018-07-30T03:00:20.882Z,23.28
2018-07-30T03:01:20.888Z,23.27
2018-07-30T03:02:20.893Z,23.36
2018-07-30T03:03:20.902Z,23.36
2018-07-30T03:04:20.913Z,23.36
2018-07-30T03:05:20.915Z,23.32
2018-07-30T03:06:20.931Z,23.31
2018-07-30T03:07:20.929Z,23.39
2018-07-30T03:08:20.933Z,23.27
2018-07-30T03:09:20.949Z,23.25
2018-07-30T03:10:20.948Z,23.24
2018-07-30T03:11:20.957Z,23.25
2018-07-30T03:12:20.958Z,23.32
2018-07-30T03:13:20.965Z,23.32
2018-07-30T03:14:20.975Z,23.36
2018-07-30T03:15:20.979Z,23.46
2018-07-30T03:16:20.979Z,23.54
2018-07-30T03:17:20.995Z,23.50
2018-07-30T03:18:21.005Z,23.47
2018-07-30T03:19:21.005Z,23.44
2018-07-30T03:20:21.010Z,23.46
2018-07-30T03:21:21.005Z,23.32
2018-07-30T03:22:21.018Z,23.32
2018-07-30T03:23:21.033Z,23.20
2018-07-30T03:24:21.045Z,23.13
2018-07-30T03:25:21.044Z,23.17
2018-07-30T03:26:21.049Z,23.18
2018-07-30T03:27:21.051Z,23.12
2018-07-30T03:28:21.063Z,23.13
2018-07-30T03:29:21.066Z,23.12
2018-07-30T03:30:21.076Z,23.03
2018-07-30T03:31:21.080Z,23.05
2018-07-30T03:32:21.089Z,23.13
2018-07-30T03:33:21.093Z,23.08
2018-07-30T03:34:21.114Z,23.12
2018-07-30T03:35:21.104Z,23.09
2018-07-30T03:36:21.109Z,23.24
2018-07-30T03:37:21.113Z,23.20
2018-07-30T03:38:21.124Z,23.13
2018-07-30T03:39:21.128Z,23.18
2018-07-30T03:40:21.138Z,23.20
2018-07-30T03:41:21.135Z,23.15
2018-07-30T03:42:21.175Z,23.17
2018-07-30T03:43:21.144Z,23.05
2018-07-30T03:44:21.152Z,23.12
2018-07-30T03:45:21.169Z,23.09
2018-07-30T03:46:21.181Z,23.08
2018-07-30T03:47:21.184Z,23.06
2018-07-30T03:48:21.179Z,22.99
2018-07-30T03:49:21.193Z,23.06
2018-07-30T03:50:21.195Z,23.13
2018-07-30T03:51:21.202Z,23.06
2018-07-30T03:52:21.204Z,23.12
2018-07-30T03:53:21.214Z,23.23
2018-07-30T03:54:21.219Z,23.13
2018-07-30T03:55:21.224Z,23.06
2018-07-30T03:56:21.229Z,23.06
2018-07-30T03:57:21.236Z,23.08
2018-07-30T03:58:21.247Z,23.06
2018-07-30T03:59:21.248Z,23.21
2018-07-30T04:00:21.294Z,23.15
2018-07-30T04:01:21.261Z,23.20
2018-07-30T04:02:21.266Z,23.24
2018-07-30T04:03:21.275Z,23.25
2018-07-30T04:04:21.276Z,23.24
2018-07-30T04:05:21.287Z,23.25
2018-07-30T04:06:21.297Z,23.23
2018-07-30T04:07:21.307Z,23.27
2018-07-30T04:08:21.312Z,23.27
2018-07-30T04:09:21.318Z,23.28
2018-07-30T04:10:21.323Z,23.21
2018-07-30T04:11:21.321Z,23.21
2018-07-30T04:12:21.331Z,23.24
2018-07-30T04:13:21.334Z,23.12
2018-07-30T04:14:21.341Z,23.10
2018-07-30T04:15:21.349Z,23.02
2018-07-30T04:16:21.356Z,23.06
2018-07-30T04:17:21.366Z,23.13
2018-07-30T04:18:21.370Z,23.02
2018-07-30T04:19:21.372Z,22.93
2018-07-30T04:20:21.379Z,22.85
2018-07-30T04:21:21.384Z,22.85
2018-07-30T04:22:21.394Z,23.00
2018-07-30T04:23:21.393Z,22.87
2018-07-30T04:24:21.401Z,22.87
2018-07-30T04:25:21.408Z,22.90
2018-07-30T04:26:21.417Z,22.85
2018-07-30T04:27:21.419Z,22.94
2018-07-30T04:28:21.429Z,22.78
2018-07-30T04:29:21.429Z,22.83
2018-07-30T04:30:21.447Z,22.90
2018-07-30T04:31:21.449Z,22.93
2018-07-30T04:32:21.455Z,22.98
2018-07-30T04:33:21.457Z,23.02
2018-07-30T04:34:21.465Z,23.05
2018-07-30T04:35:21.473Z,23.03
2018-07-30T04:36:21.475Z,23.00
2018-07-30T04:37:21.484Z,23.03
2018-07-30T04:38:21.488Z,23.08
2018-07-30T04:39:21.501Z,23.06
2018-07-30T04:40:21.499Z,23.09
2018-07-30T04:41:21.508Z,22.88
2018-07-30T04:42:21.512Z,22.96
2018-07-30T04:43:21.505Z,22.96
2018-07-30T04:44:21.522Z,22.96
2018-07-30T04:45:21.525Z,23.03
2018-07-30T04:46:21.539Z,22.94
2018-07-30T04:47:21.543Z,23.09
2018-07-30T04:48:21.554Z,23.00
2018-07-30T04:49:21.601Z,22.87
2018-07-30T04:50:21.575Z,22.96
2018-07-30T04:51:21.567Z,22.98
2018-07-30T04:52:21.568Z,22.88
2018-07-30T04:53:21.575Z,22.94
2018-07-30T04:54:21.581Z,22.96
2018-07-30T04:55:21.593Z,23.10
2018-07-30T04:56:21.598Z,23.12
2018-07-30T04:57:21.600Z,23.18
2018-07-30T04:58:21.604Z,23.24
2018-07-30T04:59:21.616Z,23.37
2018-07-30T05:00:21.614Z,23.47
2018-07-30T05:01:21.624Z,23.51
2018-07-30T05:02:21.627Z,23.48
2018-07-30T05:03:21.637Z,23.59
2018-07-30T05:04:21.641Z,23.71
2018-07-30T05:05:21.651Z,23.66
2018-07-30T05:06:21.657Z,23.69
2018-07-30T05:07:21.662Z,23.74
2018-07-30T05:08:21.666Z,23.81
2018-07-30T05:09:21.676Z,23.73
2018-07-30T05:10:21.681Z,23.71
2018-07-30T05:11:21.716Z,23.76
2018-07-30T05:12:21.696Z,23.73
2018-07-30T05:13:21.696Z,23.83
2018-07-30T05:14:21.703Z,23.74
2018-07-30T05:15:21.710Z,23.84
2018-07-30T05:16:21.720Z,23.76
2018-07-30T05:17:21.721Z,23.86
2018-07-30T05:18:21.727Z,23.78
2018-07-30T05:19:21.800Z,23.71
2018-07-30T05:20:21.743Z,23.78
2018-07-30T05:21:21.749Z,23.71
2018-07-30T05:22:21.759Z,23.63
2018-07-30T05:23:21.769Z,23.54
2018-07-30T05:24:21.767Z,23.61
2018-07-30T05:25:21.782Z,23.58
2018-07-30T05:26:21.780Z,23.63
2018-07-30T05:27:21.783Z,23.58
2018-07-30T05:28:21.786Z,23.59
2018-07-30T05:29:21.795Z,23.71
2018-07-30T05:30:21.812Z,23.71
2018-07-30T05:31:21.811Z,23.66
2018-07-30T05:32:21.816Z,23.69
2018-07-30T05:33:21.817Z,23.65
2018-07-30T05:34:21.825Z,23.61
2018-07-30T05:35:21.833Z,23.65
2018-07-30T05:36:21.847Z,23.65
2018-07-30T05:37:21.918Z,23.62
2018-07-30T05:38:21.857Z,23.63
2018-07-30T05:39:21.856Z,23.71
2018-07-30T05:40:21.859Z,23.77
2018-07-30T05:41:21.869Z,23.83
2018-07-30T05:42:21.876Z,23.91
2018-07-30T05:43:21.881Z,23.83
2018-07-30T05:44:21.887Z,23.96
2018-07-30T05:45:21.894Z,24.02
2018-07-30T05:46:21.901Z,23.93
2018-07-30T05:47:21.908Z,24.01
2018-07-30T05:48:21.911Z,23.99
2018-07-30T05:49:21.918Z,24.11
2018-07-30T05:50:21.925Z,24.21
2018-07-30T05:51:21.934Z,24.06
2018-07-30T05:52:21.938Z,24.01
2018-07-30T05:53:21.946Z,24.02
2018-07-30T05:54:21.952Z,24.13
2018-07-30T05:55:21.956Z,24.21
2018-07-30T05:56:21.976Z,24.20
2018-07-30T05:57:21.964Z,24.18
2018-07-30T05:58:21.971Z,24.11
2018-07-30T05:59:21.987Z,24.13
2018-07-30T06:00:21.996Z,24.20
2018-07-30T06:01:21.995Z,24.08
2018-07-30T06:02:21.999Z,24.08
2018-07-30T06:03:22.023Z,24.05
2018-07-30T06:04:22.014Z,24.11
2018-07-30T06:05:22.034Z,24.20
2018-07-30T06:06:22.025Z,24.20
2018-07-30T06:07:22.032Z,24.20
2018-07-30T06:08:22.034Z,24.21
2018-07-30T06:09:22.043Z,24.29
2018-07-30T06:10:22.055Z,24.32
2018-07-30T06:11:22.078Z,24.35
2018-07-30T06:12:22.061Z,24.40
2018-07-30T06:13:22.065Z,24.39
2018-07-30T06:14:22.077Z,24.39
2018-07-30T06:15:22.083Z,24.54
2018-07-30T06:16:22.090Z,24.65
2018-07-30T06:17:22.095Z,24.74
2018-07-30T06:18:22.102Z,24.89
2018-07-30T06:19:22.114Z,24.98
2018-07-30T06:20:22.111Z,25.08
2018-07-30T06:21:22.119Z,25.28
2018-07-30T06:22:22.123Z,25.38
2018-07-30T06:23:22.141Z,25.43
2018-07-30T06:24:22.138Z,25.62
2018-07-30T06:25:22.142Z,25.72
2018-07-30T06:26:22.198Z,25.81
2018-07-30T06:27:22.185Z,25.85
2018-07-30T06:28:22.186Z,25.88
2018-07-30T06:29:22.173Z,25.98
2018-07-30T06:30:22.179Z,26.00
2018-07-30T06:31:22.183Z,26.19
2018-07-30T06:32:22.191Z,26.19
2018-07-30T06:33:22.197Z,26.36
2018-07-30T06:34:22.205Z,26.37
2018-07-30T06:35:22.215Z,26.43
2018-07-30T06:36:22.221Z,26.44
2018-07-30T06:37:22.230Z,26.59
2018-07-30T06:38:22.251Z,26.56
2018-07-30T06:39:22.245Z,26.70
2018-07-30T06:40:22.247Z,26.68
2018-07-30T06:41:22.253Z,26.71
2018-07-30T06:42:22.266Z,26.85
2018-07-30T06:43:22.271Z,26.90
2018-07-30T06:44:22.278Z,27.27
2018-07-30T06:45:22.285Z,27.30
2018-07-30T06:46:22.299Z,27.45
2018-07-30T06:47:22.304Z,27.51
2018-07-30T06:48:22.305Z,27.58
2018-07-30T06:49:22.309Z,27.67
2018-07-30T06:50:22.327Z,27.67
2018-07-30T06:51:22.334Z,27.70
2018-07-30T06:52:22.342Z,27.67
2018-07-30T06:53:22.407Z,27.63
2018-07-30T06:54:22.354Z,27.55
2018-07-30T06:55:22.360Z,27.52
2018-07-30T06:56:22.367Z,27.54
2018-07-30T06:57:22.378Z,27.49
2018-07-30T06:58:22.384Z,27.49
2018-07-30T06:59:22.404Z,27.51
2018-07-30T07:00:22.401Z,27.49
2018-07-30T07:01:22.408Z,27.45
2018-07-30T07:02:22.418Z,27.52
2018-07-30T07:03:22.507Z,27.47
2018-07-30T07:04:22.435Z,27.25
2018-07-30T07:05:22.443Z,27.17
2018-07-30T07:06:22.451Z,27.03
2018-07-30T07:07:22.456Z,27.05
2018-07-30T07:08:22.470Z,27.08
2018-07-30T07:09:22.478Z,26.97
2018-07-30T07:10:22.500Z,26.97
2018-07-30T07:11:22.494Z,26.95
2018-07-30T07:12:22.500Z,27.05
2018-07-30T07:13:22.510Z,26.97
2018-07-30T07:14:22.515Z,26.96
2018-07-30T07:15:22.529Z,27.07
2018-07-30T07:16:22.535Z,27.02
2018-07-30T07:17:22.538Z,27.02
2018-07-30T07:18:22.548Z,26.99
2018-07-30T07:19:22.558Z,27.02
2018-07-30T07:20:22.564Z,27.11
2018-07-30T07:21:22.650Z,27.03
2018-07-30T07:22:22.587Z,27.02
2018-07-30T07:23:22.591Z,27.00
2018-07-30T07:24:22.597Z,26.97
2018-07-30T07:25:22.604Z,27.10
2018-07-30T07:26:22.616Z,27.05
2018-07-30T07:27:22.625Z,27.03
2018-07-30T07:28:22.628Z,27.05
2018-07-30T07:29:22.638Z,26.99
2018-07-30T07:30:22.648Z,27.14
2018-07-30T07:31:22.653Z,27.17
2018-07-30T07:32:22.667Z,27.11
2018-07-30T07:33:22.674Z,27.12
2018-07-30T07:34:22.679Z,27.20
2018-07-30T07:35:22.686Z,27.18
2018-07-30T07:36:22.700Z,27.14
2018-07-30T07:37:22.702Z,27.15
2018-07-30T07:38:22.715Z,27.27
2018-07-30T07:39:22.719Z,27.22
2018-07-30T07:40:22.776Z,27.35
2018-07-30T07:41:22.741Z,27.30
2018-07-30T07:42:22.753Z,27.40
2018-07-30T07:43:22.757Z,27.33
2018-07-30T07:44:22.763Z,27.37
2018-07-30T07:45:22.780Z,27.40
2018-07-30T07:46:22.841Z,27.45
2018-07-30T07:47:22.796Z,27.47
2018-07-30T07:48:22.796Z,27.55
2018-07-30T07:49:22.806Z,27.55
2018-07-30T07:50:22.952Z,27.55
2018-07-30T07:51:22.820Z,27.51
2018-07-30T07:52:22.820Z,27.52
2018-07-30T07:53:22.841Z,27.60
2018-07-30T07:54:22.859Z,27.65
2018-07-30T07:55:22.891Z,27.71
2018-07-30T07:56:22.865Z,27.70
2018-07-30T07:57:22.875Z,27.63
2018-07-30T07:58:22.881Z,27.74
2018-07-30T07:59:22.882Z,27.77
2018-07-30T08:00:22.900Z,27.70
2018-07-30T08:01:22.904Z,27.83
2018-07-30T08:02:22.914Z,27.80
2018-07-30T08:03:22.923Z,27.85
2018-07-30T08:04:22.930Z,27.83
2018-07-30T08:05:22.944Z,27.86
2018-07-30T08:06:22.939Z,27.93
2018-07-30T08:07:22.959Z,27.96
2018-07-30T08:08:22.977Z,27.93
2018-07-30T08:09:22.975Z,27.90
2018-07-30T08:10:22.992Z,28.01
2018-07-30T08:11:22.995Z,28.04
2018-07-30T08:12:23.020Z,28.00
2018-07-30T08:13:23.018Z,28.00
2018-07-30T08:14:23.012Z,27.98
2018-07-30T08:15:23.023Z,27.96
2018-07-30T08:16:23.093Z,28.00
2018-07-30T08:17:23.042Z,28.02
2018-07-30T08:18:23.067Z,28.01
2018-07-30T08:19:23.073Z,28.05
2018-07-30T08:20:23.065Z,27.95
2018-07-30T08:21:23.077Z,28.00
2018-07-30T08:22:23.157Z,28.00
2018-07-30T08:23:23.092Z,27.96
2018-07-30T08:24:23.098Z,27.98
2018-07-30T08:25:23.130Z,28.05
2018-07-30T08:26:23.128Z,28.00
2018-07-30T08:27:23.130Z,28.00
2018-07-30T08:28:23.142Z,27.98
2018-07-30T08:29:23.151Z,27.98
2018-07-30T08:30:23.155Z,27.98
2018-07-30T08:31:23.163Z,27.98
2018-07-30T08:32:23.178Z,28.01
2018-07-30T08:33:23.184Z,27.93
2018-07-30T08:34:23.202Z,27.98
2018-07-30T08:35:23.199Z,27.96
2018-07-30T08:36:23.208Z,28.02
2018-07-30T08:37:23.217Z,27.90
2018-07-30T08:38:23.227Z,27.89
2018-07-30T08:39:23.242Z,27.96
2018-07-30T08:40:23.248Z,28.00
2018-07-30T08:41:23.254Z,27.92
2018-07-30T08:42:23.341Z,28.05
2018-07-30T08:43:23.277Z,27.98
2018-07-30T08:44:23.280Z,28.01
2018-07-30T08:45:23.291Z,27.98
2018-07-30T08:46:23.306Z,27.96
2018-07-30T08:47:23.299Z,27.96
2018-07-30T08:48:23.310Z,27.98
2018-07-30T08:49:23.329Z,28.00
2018-07-30T08:50:23.332Z,28.01
2018-07-30T08:51:23.346Z,28.00
2018-07-30T08:52:23.347Z,28.04
2018-07-30T08:53:23.355Z,28.05
2018-07-30T08:54:23.375Z,28.04
2018-07-30T08:55:23.371Z,28.01
2018-07-30T08:56:23.453Z,28.10
2018-07-30T08:57:23.391Z,28.10
2018-07-30T08:58:23.398Z,28.07
2018-07-30T08:59:23.407Z,28.07
2018-07-30T09:00:23.422Z,28.05
2018-07-30T09:01:23.428Z,28.05
2018-07-30T09:02:23.439Z,28.07
2018-07-30T09:03:23.466Z,28.08
2018-07-30T09:04:23.459Z,28.05
2018-07-30T09:05:23.461Z,28.19
2018-07-30T09:06:23.479Z,28.12
2018-07-30T09:07:23.482Z,28.12
2018-07-30T09:08:23.504Z,28.14
2018-07-30T09:09:23.507Z,28.27
2018-07-30T09:10:23.510Z,28.29
2018-07-30T09:11:23.511Z,28.23
2018-07-30T09:12:23.549Z,28.26
2018-07-30T09:13:23.548Z,28.33
2018-07-30T09:14:23.556Z,28.32
2018-07-30T09:15:23.595Z,28.27
2018-07-30T09:16:23.573Z,28.37
2018-07-30T09:17:23.582Z,28.37
2018-07-30T09:18:23.640Z,28.38
2018-07-30T09:19:23.586Z,28.38
2018-07-30T09:20:23.609Z,28.52
2018-07-30T09:21:23.610Z,28.54
2018-07-30T09:22:23.621Z,28.47
2018-07-30T09:23:23.626Z,28.52
2018-07-30T09:24:23.627Z,28.54
2018-07-30T09:25:23.643Z,28.66
2018-07-30T09:26:23.647Z,28.56
2018-07-30T09:27:23.656Z,28.49
2018-07-30T09:28:23.683Z,28.63
2018-07-30T09:29:23.669Z,28.64
2018-07-30T09:30:23.684Z,28.72
2018-07-30T09:31:23.692Z,28.70
2018-07-30T09:32:23.692Z,28.69
2018-07-30T09:33:23.727Z,28.67
2018-07-30T09:34:23.719Z,28.69
2018-07-30T09:35:23.729Z,28.76
2018-07-30T09:36:23.736Z,28.78
2018-07-30T09:37:23.748Z,28.74
2018-07-30T09:38:23.760Z,28.85
2018-07-30T09:39:23.885Z,28.89
2018-07-30T09:40:23.776Z,28.86
2018-07-30T09:41:23.790Z,28.82
2018-07-30T09:42:23.798Z,28.86
2018-07-30T09:43:23.806Z,28.89
2018-07-30T09:44:23.855Z,28.91
2018-07-30T09:45:23.828Z,28.91
2018-07-30T09:46:23.825Z,28.91
2018-07-30T09:47:23.838Z,28.93
2018-07-30T09:48:23.848Z,28.98
2018-07-30T09:49:23.876Z,29.01
2018-07-30T09:50:23.908Z,28.98
2018-07-30T09:51:23.878Z,29.05
2018-07-30T09:52:23.882Z,29.04
2018-07-30T09:53:23.896Z,29.10
2018-07-30T09:54:23.900Z,29.08
2018-07-30T09:55:23.923Z,29.12
2018-07-30T09:56:23.941Z,29.12
2018-07-30T09:57:23.931Z,29.16
2018-07-30T09:58:23.963Z,29.17
2018-07-30T09:59:23.953Z,29.16
2018-07-30T10:00:23.966Z,29.14
2018-07-30T10:01:23.974Z,29.20
2018-07-30T10:02:23.982Z,29.20
2018-07-30T10:03:23.988Z,29.19
2018-07-30T10:04:24.002Z,29.26
2018-07-30T10:05:24.010Z,29.24
2018-07-30T10:06:24.017Z,29.31
2018-07-30T10:07:24.034Z,29.23
2018-07-30T10:08:24.111Z,29.24
2018-07-30T10:09:24.039Z,29.32
2018-07-30T10:10:24.059Z,29.29
2018-07-30T10:11:24.067Z,29.31
2018-07-30T10:12:24.075Z,29.32
2018-07-30T10:13:24.088Z,29.26
2018-07-30T10:14:24.090Z,29.36
2018-07-30T10:15:24.103Z,29.26
2018-07-30T10:16:24.103Z,29.29
2018-07-30T10:17:24.122Z,29.29
2018-07-30T10:18:24.171Z,29.32
2018-07-30T10:19:24.147Z,29.36
2018-07-30T10:20:24.149Z,29.34
2018-07-30T10:21:24.179Z,29.35
2018-07-30T10:22:24.164Z,29.29
2018-07-30T10:23:24.194Z,29.41
2018-07-30T10:24:24.184Z,29.39
2018-07-30T10:25:24.217Z,29.42
2018-07-30T10:26:24.205Z,29.44
2018-07-30T10:27:24.216Z,29.42
2018-07-30T10:28:24.261Z,29.44
2018-07-30T10:29:24.237Z,29.38
2018-07-30T10:30:24.294Z,29.38
2018-07-30T10:31:24.282Z,29.39
2018-07-30T10:32:24.301Z,29.45
2018-07-30T10:33:24.270Z,29.42
2018-07-30T10:34:24.310Z,29.44
2018-07-30T10:35:24.294Z,29.50
2018-07-30T10:36:24.302Z,29.42
2018-07-30T10:37:24.310Z,29.42
2018-07-30T10:38:24.376Z,29.49
2018-07-30T10:39:24.337Z,29.44
2018-07-30T10:40:24.337Z,29.42
2018-07-30T10:41:24.351Z,29.49
2018-07-30T10:42:24.390Z,29.49
2018-07-30T10:43:24.425Z,29.49
2018-07-30T10:44:24.378Z,29.51
2018-07-30T10:45:24.401Z,29.51
2018-07-30T10:46:24.461Z,29.47
2018-07-30T10:47:24.409Z,29.54
2018-07-30T10:48:24.415Z,29.50
2018-07-30T10:49:24.435Z,29.42
2018-07-30T10:50:24.438Z,29.47
2018-07-30T10:51:24.454Z,29.51
2018-07-30T10:52:24.457Z,29.49
2018-07-30T10:53:24.474Z,29.45
2018-07-30T10:54:24.503Z,29.51
2018-07-30T10:55:24.492Z,29.53
2018-07-30T10:56:24.542Z,29.51
2018-07-30T10:57:24.511Z,29.51
2018-07-30T10:58:24.525Z,29.49
2018-07-30T10:59:24.565Z,29.51
2018-07-30T11:00:24.528Z,29.44
2018-07-30T11:01:24.558Z,29.57
2018-07-30T11:02:24.550Z,29.53
2018-07-30T11:03:24.564Z,29.51
2018-07-30T11:04:24.566Z,29.51
2018-07-30T11:05:24.593Z,29.51
2018-07-30T11:06:24.584Z,29.56
2018-07-30T11:07:24.599Z,29.51
2018-07-30T11:08:24.608Z,29.51
2018-07-30T11:09:26.703Z,29.44
2018-07-30T11:10:24.644Z,29.41
2018-07-30T11:11:24.643Z,29.49
2018-07-30T11:12:24.646Z,29.49
2018-07-30T11:13:24.655Z,29.51
2018-07-30T11:14:24.681Z,29.50
2018-07-30T11:15:24.685Z,29.49
2018-07-30T11:16:24.685Z,29.47
2018-07-30T11:17:24.708Z,29.50
2018-07-30T11:18:24.705Z,29.56
2018-07-30T11:19:24.724Z,29.51
2018-07-30T11:20:24.724Z,29.53
2018-07-30T11:21:24.739Z,29.45
2018-07-30T11:22:24.747Z,29.54
2018-07-30T11:23:24.767Z,29.47
2018-07-30T11:24:24.769Z,29.51
2018-07-30T11:25:24.823Z,29.49
2018-07-30T11:26:24.782Z,29.53
2018-07-30T11:27:24.796Z,29.56
2018-07-30T11:28:24.807Z,29.56
2018-07-30T11:29:24.814Z,29.51
2018-07-30T11:30:24.818Z,29.56
2018-07-30T11:31:24.840Z,29.49
2018-07-30T11:32:24.839Z,29.53
2018-07-30T11:33:24.894Z,29.45
2018-07-30T11:34:24.860Z,29.51
2018-07-30T11:35:24.875Z,29.51
2018-07-30T11:36:24.883Z,29.45
2018-07-30T11:37:24.888Z,29.51
2018-07-30T11:38:24.897Z,29.49
2018-07-30T11:39:24.925Z,29.51
2018-07-30T11:40:24.918Z,29.49
2018-07-30T11:41:24.933Z,29.49
2018-07-30T11:42:24.943Z,29.51
2018-07-30T11:43:24.947Z,29.49
2018-07-30T11:44:24.959Z,29.49
2018-07-30T11:45:24.975Z,29.45
2018-07-30T11:46:24.974Z,29.49
2018-07-30T11:47:24.988Z,29.51
2018-07-30T11:48:25.144Z,29.49
2018-07-30T11:49:25.022Z,29.53
2018-07-30T11:50:25.013Z,29.51
2018-07-30T11:51:25.025Z,29.45
2018-07-30T11:52:25.037Z,29.50
2018-07-30T11:53:25.045Z,29.49
2018-07-30T11:54:25.131Z,29.51
2018-07-30T11:55:25.085Z,29.53
2018-07-30T11:56:25.073Z,29.49
2018-07-30T11:57:25.090Z,29.53
2018-07-30T11:58:25.116Z,29.51
2018-07-30T11:59:25.103Z,29.49
2018-07-30T12:00:25.111Z,29.56
2018-07-30T12:01:25.226Z,29.56
2018-07-30T12:02:25.135Z,29.41
2018-07-30T12:03:25.149Z,29.51
2018-07-30T12:04:25.182Z,29.49
2018-07-30T12:05:25.167Z,29.44
2018-07-30T12:06:25.187Z,29.41
2018-07-30T12:07:25.184Z,29.47
2018-07-30T12:08:25.192Z,29.44
2018-07-30T12:09:25.235Z,29.49
2018-07-30T12:10:25.212Z,29.49
2018-07-30T12:11:25.220Z,29.49
2018-07-30T12:12:25.265Z,29.49
2018-07-30T12:13:25.298Z,29.49
2018-07-30T12:14:25.272Z,29.50
2018-07-30T12:15:25.289Z,29.47
2018-07-30T12:16:25.268Z,29.49
2018-07-30T12:17:25.282Z,29.42
2018-07-30T12:18:25.298Z,29.47
2018-07-30T12:19:25.320Z,29.49
2018-07-30T12:20:25.316Z,29.47
2018-07-30T12:21:25.333Z,29.45
2018-07-30T12:22:25.344Z,29.44
2018-07-30T12:23:25.337Z,29.41
2018-07-30T12:24:25.400Z,29.42
2018-07-30T12:25:25.367Z,29.50
2018-07-30T12:26:25.400Z,29.36
2018-07-30T12:27:25.390Z,29.41
2018-07-30T12:28:25.393Z,29.38
2018-07-30T12:29:25.406Z,29.35
2018-07-30T12:30:25.488Z,29.31
2018-07-30T12:31:25.427Z,29.36
2018-07-30T12:32:25.433Z,29.35
2018-07-30T12:33:25.503Z,29.38
2018-07-30T12:34:25.442Z,29.32
2018-07-30T12:35:25.453Z,29.41
2018-07-30T12:36:25.533Z,29.32
2018-07-30T12:37:25.485Z,29.35
2018-07-30T12:38:25.486Z,29.32
2018-07-30T12:39:25.517Z,29.39
2018-07-30T12:40:25.506Z,29.36
2018-07-30T12:41:25.518Z,29.35
2018-07-30T12:42:25.528Z,29.26
2018-07-30T12:43:25.550Z,29.31
2018-07-30T12:44:25.552Z,29.32
2018-07-30T12:45:25.551Z,29.41
2018-07-30T12:46:25.578Z,29.32
2018-07-30T12:47:25.564Z,29.35
2018-07-30T12:48:25.584Z,29.35
2018-07-30T12:49:25.587Z,29.35
2018-07-30T12:50:25.621Z,29.34
2018-07-30T12:51:25.631Z,29.34
2018-07-30T12:52:25.625Z,29.34